Time;durP1;ratioP1;P1;durP2;ratioP2;P2;SDS_P1;SDS_P2;PMS_P1;PMS_P2;Temp;Humidity;BMP_temperature;BMP_pressure;BME280_temperature;BME280_humidity;BME280_pressure;Samples;Min_cycle;Max_cycle;Signal;HPM_P1;HPM_P2
2023/07/11 07:23:41;;;;;;;6.85;2.78;;;;;;;-145.79;46.49;76357.84;5280072;28;20387;-79
2023/07/11 07:26:12;;;;;;;;;;;;;;;-145.79;45.59;76347.25;5274391;28;20040;-80
2023/07/11 07:28:43;;;;;;;5.18;2.72;;;;;;;-145.79;45.62;76347.25;5269325;28;19912;-80
2023/07/11 07:31:15;;;;;;;4.30;2.80;;;;;;;-145.79;45.60;76338.78;5280629;28;20036;-80
2023/07/11 07:33:46;;;;;;;5.55;2.60;;;;;;;-145.79;45.77;76326.06;5279341;28;20546;-80
2023/07/11 07:36:19;;;;;;;8.63;2.88;;;;;;;-145.79;45.71;76317.59;5280195;28;20119;-78
2023/07/11 07:38:50;;;;;;;5.05;2.70;;;;;;;-145.79;45.37;76304.88;5279317;28;20020;-80
2023/07/11 07:41:22;;;;;;;5.10;3.00;;;;;;;-145.79;45.15;76300.66;5279855;28;20131;-75
2023/07/11 07:43:53;;;;;;;5.38;2.47;;;;;;;-145.79;45.17;76277.34;5279240;28;20098;-76
2023/07/11 07:46:25;;;;;;;6.65;2.88;;;;;;;-145.79;44.87;76254.03;5279711;28;20066;-76
2023/07/11 07:48:59;;;;;;;7.53;2.47;;;;;;;-145.79;44.54;76258.25;5278455;28;20529;-80
2023/07/11 07:51:30;;;;;;;5.07;2.60;;;;;;;-145.79;44.53;76245.56;5278771;28;20037;-74
2023/07/11 07:54:02;;;;;;;4.70;2.38;;;;;;;-145.79;44.34;76215.88;5273074;28;20282;-74
2023/07/11 07:56:35;;;;;;;5.72;2.58;;;;;;;-145.79;43.68;76215.88;5259115;28;20028;-75
2023/07/11 07:59:07;;;;;;;7.10;3.10;;;;;;;-145.79;44.17;76181.97;5269130;28;20426;-75
2023/07/11 08:01:38;;;;;;;5.47;2.30;;;;;;;-145.79;43.45;76177.75;5276954;28;20021;-75
2023/07/11 08:04:11;;;;;;;13.93;11.57;;;;;;;-145.79;42.98;76167.16;5266530;28;20447;-75
2023/07/11 08:06:43;;;;;;;5.70;3.20;;;;;;;-145.79;42.82;76160.78;5279186;28;20025;-75
2023/07/11 08:09:14;;;;;;;3.95;2.50;;;;;;;-145.79;42.98;76160.78;5278379;28;20021;-75
2023/07/11 08:11:46;;;;;;;7.20;2.85;;;;;;;-145.79;43.17;76171.38;5279065;28;20027;-76
2023/07/11 08:14:17;;;;;;;5.65;2.60;;;;;;;-145.79;43.12;76171.38;5278999;28;20025;-75
2023/07/11 08:16:49;;;;;;;4.82;2.20;;;;;;;-145.79;42.44;76150.19;5277404;28;20030;-77
2023/07/11 08:19:20;;;;;;;4.50;2.03;;;;;;;-145.79;42.33;76133.25;5277624;28;20025;-74
2023/07/11 08:21:52;;;;;;;3.47;2.10;;;;;;;-145.79;42.23;76124.78;5258205;28;20056;-74
2023/07/11 08:24:23;;;;;;;4.43;2.00;;;;;;;-145.79;42.15;76126.88;5257254;28;20108;-74
2023/07/11 08:26:55;;;;;;;6.70;3.00;;;;;;;-145.79;42.03;76105.69;5262422;28;20025;-75
2023/07/11 08:29:26;;;;;;;3.13;2.20;;;;;;;-145.79;41.90;76105.69;5276878;28;20033;-74
2023/07/11 08:31:58;;;;;;;4.97;2.22;;;;;;;-145.79;41.72;76099.34;5261314;28;20062;-74
2023/07/11 08:34:29;;;;;;;4.03;2.47;;;;;;;-145.79;41.74;76086.63;5252275;28;20036;-74
2023/07/11 08:37:01;;;;;;;2.97;2.20;;;;;;;-145.79;41.56;76080.28;5264090;28;20017;-74
2023/07/11 08:39:32;;;;;;;3.80;2.35;;;;;;;-145.79;41.63;76073.91;5264406;28;20033;-73
2023/07/11 08:42:27;;;;;;;5.15;2.50;;;;;;;-145.79;41.22;76054.84;5263537;28;20045;-74
2023/07/11 08:45:28;;;;;;;6.22;2.13;;;;;;;-145.79;41.25;76035.78;5263492;28;20033;-76
2023/07/11 08:48:24;;;;;;;3.85;2.53;;;;;;;-145.79;41.11;76014.59;5264798;28;20028;-75
2023/07/11 08:51:14;;;;;;;;;;;;;;;-145.79;41.28;75995.50;5261284;28;20041;-76
2023/07/11 08:53:51;;;;;;;7.13;2.92;;;;;;;-145.79;41.20;76004.00;5257638;28;20350;-76
2023/07/11 08:56:37;;;;;;;3.63;2.22;;;;;;;-145.79;40.84;75993.41;5264761;28;20107;-76
2023/07/11 08:59:15;;;;;;;5.85;2.53;;;;;;;-145.79;41.24;75984.91;5263871;28;20033;-75
2023/07/11 09:02:15;;;;;;;6.43;2.55;;;;;;;-145.79;41.11;75972.22;5244458;28;20037;-74
2023/07/11 09:04:53;;;;;;;6.63;2.30;;;;;;;-145.79;40.88;75970.09;5242407;28;20025;-71
2023/07/11 09:07:42;;;;;;;4.88;2.55;;;;;;;-145.79;41.15;75955.25;5255302;28;20056;-71
2023/07/11 09:10:27;;;;;;;9.95;3.00;;;;;;;-145.79;40.97;75940.41;5260703;28;20063;-73
2023/07/11 09:13:49;;;;;;;8.52;2.50;;;;;;;-145.79;40.91;75948.91;5261882;28;20024;-72
2023/07/11 09:16:26;;;;;;;6.35;2.70;;;;;;;-145.79;40.77;75963.72;5247919;28;20045;-73
2023/07/11 09:19:20;;;;;;;6.63;3.13;;;;;;;-145.79;40.86;75967.97;5254764;28;20051;-73
2023/07/11 09:22:17;;;;;;;6.28;2.28;;;;;;;-145.79;40.50;75942.53;5252816;28;20041;-73
2023/07/11 09:24:55;;;;;;;7.15;2.10;;;;;;;-145.79;40.50;75927.72;5260147;28;20090;-74
2023/07/11 09:27:32;;;;;;;5.28;2.53;;;;;;;-145.79;40.64;75917.13;5257774;28;20140;-73
2023/07/11 09:30:16;;;;;;;5.40;2.20;;;;;;;-145.79;40.28;75929.81;5260342;28;20025;-73
2023/07/11 09:32:48;;;;;;;4.38;2.40;;;;;;;-145.79;40.41;75936.19;5259741;28;20086;-72
2023/07/11 09:35:28;;;;;;;4.60;1.92;;;;;;;-145.79;40.77;75917.13;5259497;28;20527;-73
2023/07/11 09:38:10;;;;;;;3.92;2.40;;;;;;;-145.79;39.96;75910.75;5262253;28;20056;-75
2023/07/11 09:40:49;;;;;;;5.95;2.45;;;;;;;-145.79;39.58;75910.75;5261318;28;20377;-76
2023/07/11 09:43:23;;;;;;;4.28;2.08;;;;;;;-145.79;39.18;75921.34;5267726;28;20037;-75
2023/07/11 09:46:01;;;;;;;3.75;2.40;;;;;;;-145.79;39.00;75919.22;5269707;28;20094;-76
2023/07/11 09:48:36;;;;;;;6.63;3.10;;;;;;;-145.79;38.80;75919.22;5270190;28;20480;-76
2023/07/11 09:51:36;;;;;;;6.18;2.42;;;;;;;-145.79;38.81;75912.88;5266720;28;20028;-75
2023/07/11 09:54:23;;;;;;;7.53;3.17;;;;;;;-145.79;38.83;75910.75;5271592;28;20035;-77
2023/07/11 09:56:57;;;;;;;6.60;2.67;;;;;;;-145.79;39.08;75902.28;5263283;28;20027;-70
2023/07/11 09:59:29;;;;;;;3.53;2.42;;;;;;;-145.79;39.45;75883.22;5261160;28;20029;-72
2023/07/11 10:02:04;;;;;;;4.45;2.63;;;;;;;-145.79;39.73;75878.97;5256344;28;20055;-72
2023/07/11 10:04:35;;;;;;;5.90;2.42;;;;;;;-145.79;39.98;75898.03;5258502;28;20032;-74
2023/07/11 10:07:13;;;;;;;5.72;2.80;;;;;;;-145.79;40.15;75885.34;5271689;28;20021;-80
2023/07/11 10:09:50;;;;;;;5.53;2.53;;;;;;;-145.79;40.34;75872.63;5277447;28;20028;-80
2023/07/11 10:12:24;;;;;;;6.32;4.45;;;;;;;-145.79;40.06;75868.38;5275534;28;20537;-79
2023/07/11 10:15:01;;;;;;;5.57;2.75;;;;;;;-145.79;40.17;75857.78;5271296;28;20104;-81
2023/07/11 10:17:34;;;;;;;5.43;2.50;;;;;;;-145.79;40.01;75862.03;5264195;28;20033;-78
2023/07/11 10:20:14;;;;;;;5.95;2.60;;;;;;;-145.79;39.87;75864.16;5261287;28;20399;-80
2023/07/11 10:22:53;;;;;;;6.82;2.30;;;;;;;-145.79;39.93;75866.25;5260000;28;20112;-80
2023/07/11 10:25:27;;;;;;;6.53;2.83;;;;;;;-145.79;39.84;75870.50;5267598;28;20095;-80
2023/07/11 10:28:08;;;;;;;13.95;12.32;;;;;;;-145.79;40.02;75849.31;5253792;28;20033;-80
2023/07/11 10:30:41;;;;;;;9.25;7.82;;;;;;;-145.79;39.73;75851.44;5265058;28;20103;-79
2023/07/11 10:33:29;;;;;;;8.45;3.45;;;;;;;-145.79;39.67;75836.59;5259982;28;20044;-80
2023/07/11 10:36:19;;;;;;;8.18;2.72;;;;;;;-145.79;39.57;75815.41;5267928;28;20017;-80
2023/07/11 10:39:00;;;;;;;6.18;2.75;;;;;;;-145.79;39.65;75815.41;5278842;28;20021;-82
2023/07/11 10:41:42;;;;;;;7.55;3.03;;;;;;;-145.79;39.98;75806.94;5275060;28;20411;-79
2023/07/11 10:44:20;;;;;;;5.32;2.38;;;;;;;-145.79;39.92;75773.03;5272587;28;20033;-79
2023/07/11 10:46:53;;;;;;;4.97;2.97;;;;;;;-145.79;39.66;75783.63;5277326;28;20525;-79
2023/07/11 10:49:46;;;;;;;6.97;3.33;;;;;;;-145.79;39.41;75760.31;5273357;28;20025;-76
2023/07/11 10:52:23;;;;;;;10.15;3.25;;;;;;;-145.79;39.17;75749.72;5263928;28;20091;-81
2023/07/11 10:55:20;;;;;;;7.93;3.15;;;;;;;-145.79;38.74;75756.09;5288004;28;20036;-81
2023/07/11 10:57:53;;;;;;;6.35;3.40;;;;;;;-145.79;37.97;75762.44;5277306;28;20029;-80
2023/07/11 11:00:47;;;;;;;6.25;3.08;;;;;;;-145.79;37.90;75766.69;5311275;28;20080;-80
2023/07/11 11:03:33;;;;;;;6.72;3.10;;;;;;;-145.79;37.62;75758.19;5284430;28;20033;-82
2023/07/11 11:06:32;;;;;;;4.63;2.75;;;;;;;-145.79;38.00;75753.97;5278089;28;20055;-81
2023/07/11 11:09:25;;;;;;;7.88;4.30;;;;;;;-145.79;37.79;75739.13;5282671;28;20086;-83
2023/07/11 11:12:10;;;;;;;17.10;15.27;;;;;;;-145.79;38.02;75715.81;5280312;28;20027;-82
2023/07/11 11:14:48;;;;;;;8.23;4.78;;;;;;;-145.79;37.96;75713.72;5277744;28;20024;-77
2023/07/11 11:17:32;;;;;;;32.20;28.85;;;;;;;-145.79;38.15;75709.47;5278810;28;20032;-79
2023/07/11 11:20:14;;;;;;;7.45;3.33;;;;;;;-145.79;37.80;75690.41;5262996;28;20103;-82
2023/07/11 11:22:48;;;;;;;5.13;2.75;;;;;;;-145.79;37.56;75694.63;5261710;28;20064;-81
2023/07/11 11:25:35;;;;;;;5.10;2.70;;;;;;;-145.79;37.81;75673.44;5244218;28;20029;-76
2023/07/11 11:28:12;;;;;;;6.72;3.13;;;;;;;-145.79;37.70;75648.03;5275596;28;20025;-76
2023/07/11 11:31:13;;;;;;;5.93;2.60;;;;;;;-145.79;37.88;75643.78;5277843;28;20028;-76
2023/07/11 11:34:04;;;;;;;6.82;2.50;;;;;;;-145.79;37.42;75626.84;5264319;28;20029;-80
2023/07/11 11:37:14;;;;;;;5.15;3.00;;;;;;;-145.79;36.28;75609.88;5259559;28;20029;-77
2023/07/11 11:39:57;;;;;;;5.22;3.88;;;;;;;-145.79;36.09;75622.59;5261637;28;20048;-79
2023/07/11 11:42:31;;;;;;;2.90;2.50;;;;;;;-145.79;36.32;75628.97;5266930;28;20048;-80
2023/07/11 11:45:10;;;;;;;5.45;2.30;;;;;;;-145.79;36.35;75612.00;5278695;28;20067;-81
2023/07/11 11:47:43;;;;;;;5.72;3.13;;;;;;;-145.79;36.21;75588.72;5256073;28;20021;-81
2023/07/11 11:50:18;;;;;;;5.95;2.50;;;;;;;-145.79;36.20;75592.94;5279455;28;20047;-79
2023/07/11 11:52:57;;;;;;;;;;;;;;;-145.79;36.24;75569.63;5273372;28;20025;-75
2023/07/11 11:55:31;;;;;;;4.60;2.25;;;;;;;-145.79;36.24;75580.22;5278660;28;20412;-79
2023/07/11 11:58:04;;;;;;;4.53;2.55;;;;;;;-145.79;36.25;75569.63;5275559;28;20556;-82
2023/07/11 12:00:40;;;;;;;4.25;3.75;;;;;;;-145.79;36.17;75537.84;5279511;28;20537;-84
2023/07/11 12:03:20;;;;;;;6.65;2.85;;;;;;;-145.79;36.39;75520.91;5270217;28;20033;-82
2023/07/11 12:05:53;;;;;;;3.75;3.00;;;;;;;-145.79;36.30;75533.63;5259977;28;20035;-81
2023/07/11 12:08:27;;;;;;;6.28;2.90;;;;;;;-145.79;36.29;75516.66;5259218;28;20037;-81
2023/07/11 12:11:09;;;;;;;7.57;3.30;;;;;;;-145.79;36.33;75516.66;5269993;28;20036;-83
2023/07/11 12:13:44;;;;;;;6.07;2.50;;;;;;;-145.79;36.57;75514.56;5271827;28;20566;-82
2023/07/11 12:16:21;;;;;;;6.07;2.90;;;;;;;-145.79;36.90;75499.72;5270349;28;20032;-83
2023/07/11 12:18:57;;;;;;;7.70;3.17;;;;;;;-145.79;36.76;75476.41;5284143;28;20036;-81
2023/07/11 12:21:43;;;;;;;6.88;3.28;;;;;;;-145.79;36.53;75474.28;5280471;28;20825;-82
2023/07/11 12:24:34;;;;;;;15.75;14.18;;;;;;;-145.79;36.49;75470.06;5274887;28;20030;-76
2023/07/11 12:27:21;;;;;;;10.68;3.15;;;;;;;-145.79;36.50;75448.88;5273749;28;20534;-81
2023/07/11 12:29:54;;;;;;;5.97;2.67;;;;;;;-145.79;36.44;75444.63;5269966;28;20032;-78
2023/07/11 12:32:31;;;;;;;4.30;3.13;;;;;;;-145.79;36.38;75436.16;5260916;28;20388;-85
2023/07/11 12:35:02;;;;;;;3.05;2.47;;;;;;;-145.79;35.94;75431.94;5275913;28;20029;-84
2023/07/11 12:37:52;;;;;;;4.82;2.67;;;;;;;-145.79;36.26;75395.91;5280425;28;20028;-80
2023/07/11 12:40:37;;;;;;;5.63;2.67;;;;;;;-145.79;36.13;75389.56;5283070;28;20067;-83
2023/07/11 12:43:29;;;;;;;5.57;3.20;;;;;;;-145.79;35.32;75374.72;5269826;28;20074;-82
2023/07/11 12:46:06;;;;;;;6.63;2.65;;;;;;;-145.79;35.23;75351.41;5273096;28;20674;-79
2023/07/11 12:48:43;;;;;;;4.30;2.80;;;;;;;-145.79;34.47;75366.25;5273040;28;20050;-82
2023/07/11 12:51:34;;;;;;;5.05;2.72;;;;;;;-145.79;34.30;75349.31;5262629;28;20502;-82
2023/07/11 12:54:18;;;;;;;4.40;2.83;;;;;;;-145.79;34.64;75364.13;5277480;28;20066;-80
2023/07/11 12:56:51;;;;;;;4.72;2.72;;;;;;;-145.79;34.75;75359.91;5279361;28;20029;-77
2023/07/11 12:59:30;;;;;;;11.48;3.08;;;;;;;-145.79;34.75;75349.31;5281456;28;20036;-76
2023/07/11 13:02:05;;;;;;;4.25;2.95;;;;;;;-145.79;34.26;75326.00;5280989;28;20048;-76
2023/07/11 13:04:43;;;;;;;5.05;2.80;;;;;;;-145.79;34.22;75323.88;5277258;28;20032;-77
2023/07/11 13:07:20;;;;;;;5.57;2.80;;;;;;;-145.79;34.13;75334.47;5275150;28;20026;-81
2023/07/11 13:09:56;;;;;;;6.72;2.75;;;;;;;-145.79;34.34;75338.72;5282336;28;20024;-80
2023/07/11 13:12:34;;;;;;;5.32;3.08;;;;;;;-145.79;35.01;75315.41;5281539;28;20059;-78
2023/07/11 13:15:21;;;;;;;6.60;2.80;;;;;;;-145.79;34.63;75321.75;5284250;28;20017;-80
2023/07/11 13:17:59;;;;;;;6.97;3.33;;;;;;;-145.79;34.65;75347.19;5292503;28;20032;-80
2023/07/11 13:20:38;;;;;;;6.03;3.05;;;;;;;-145.79;34.74;75313.28;5291412;28;20033;-79
2023/07/11 13:23:12;;;;;;;4.30;2.65;;;;;;;-145.79;34.48;75287.88;5290030;28;20063;-78
2023/07/11 13:25:44;;;;;;;3.97;2.42;;;;;;;-145.79;34.10;75279.38;5289630;28;20029;-79
2023/07/11 13:28:17;;;;;;;4.22;2.33;;;;;;;-145.79;33.85;75268.78;5279088;28;20053;-78
2023/07/11 13:31:01;;;;;;;3.20;2.45;;;;;;;-145.79;33.90;75249.72;5288671;28;20364;-77
2023/07/11 13:33:37;;;;;;;4.00;2.45;;;;;;;-145.79;33.69;75258.19;5278147;28;20064;-80
2023/07/11 13:36:19;;;;;;;5.90;2.95;;;;;;;-145.79;33.84;75273.03;5259022;28;20029;-79
2023/07/11 13:38:55;;;;;;;4.38;2.55;;;;;;;-145.79;33.83;75273.03;5279505;28;20033;-80
2023/07/11 13:41:31;;;;;;;3.63;2.28;;;;;;;-145.79;33.92;75253.97;5274710;28;20074;-80
2023/07/11 13:44:15;;;;;;;4.57;2.50;;;;;;;-145.79;33.55;75232.78;5260855;28;20467;-78
2023/07/11 13:46:46;;;;;;;7.70;5.20;;;;;;;-145.79;33.51;75249.72;5268489;28;20091;-81
2023/07/11 13:49:37;;;;;;;7.28;2.88;;;;;;;-145.79;33.70;75211.59;5270137;28;20387;-77
2023/07/11 13:52:37;;;;;;;6.97;3.33;;;;;;;-145.79;33.57;75203.13;5270785;28;20518;-77
2023/07/11 13:55:44;;;;;;;4.57;2.17;;;;;;;-145.79;33.49;75211.59;5278327;28;20487;-79
2023/07/11 13:58:15;;;;;;;3.20;2.47;;;;;;;-145.79;33.41;75186.19;5274935;28;20029;-79
2023/07/11 14:00:52;;;;;;;5.60;3.40;;;;;;;-145.79;33.58;75184.06;5276722;28;20023;-79
2023/07/11 14:03:27;;;;;;;4.82;2.78;;;;;;;-145.79;33.56;75181.94;5280073;28;20031;-79
2023/07/11 14:06:00;;;;;;;5.25;3.00;;;;;;;-145.79;33.60;75209.47;5263146;28;20064;-77
2023/07/11 14:08:37;;;;;;;5.20;2.75;;;;;;;-145.79;33.69;75215.84;5253171;28;20467;-78
2023/07/11 14:11:25;;;;;;;5.88;2.22;;;;;;;-145.79;33.73;75220.06;5277103;28;20379;-79
2023/07/11 14:13:57;;;;;;;4.57;2.35;;;;;;;-145.79;34.30;75222.19;5262637;28;20476;-80
2023/07/11 14:16:29;;;;;;;3.42;2.50;;;;;;;-145.79;34.25;75198.88;5276709;28;20037;-80
2023/07/11 14:19:03;;;;;;;5.03;2.53;;;;;;;-145.79;33.67;75203.13;5280697;28;20039;-79
2023/07/11 14:21:34;;;;;;;4.18;2.30;;;;;;;-145.79;33.59;75177.69;5275325;28;20437;-82
2023/07/11 14:24:12;;;;;;;6.75;2.70;;;;;;;-145.79;34.12;75186.19;5271861;28;20039;-80
2023/07/11 14:26:43;;;;;;;6.22;2.67;;;;;;;-145.79;34.02;75192.53;5265490;28;20108;-81
2023/07/11 14:29:23;;;;;;;4.72;2.72;;;;;;;-145.79;34.08;75194.66;5271977;28;20108;-81
2023/07/11 14:31:59;;;;;;;5.60;2.22;;;;;;;-145.79;34.14;75211.59;5252784;28;20111;-81
2023/07/11 14:34:31;;;;;;;4.72;2.38;;;;;;;-145.79;34.61;75241.25;5276842;28;20039;-81
2023/07/11 14:37:03;;;;;;;5.28;3.42;;;;;;;-145.79;34.81;75245.50;5274907;28;20104;-84
2023/07/11 14:39:35;;;;;;;4.22;2.83;;;;;;;-145.79;34.78;75270.91;5278035;28;20154;-79
2023/07/11 14:42:26;;;;;;;5.20;3.00;;;;;;;-145.79;34.81;75262.44;5277142;28;20041;-79
2023/07/11 14:44:58;;;;;;;4.75;3.50;;;;;;;-145.79;35.09;75241.25;5264958;28;20032;-83
2023/07/11 14:47:29;;;;;;;4.32;2.90;;;;;;;-145.79;34.92;75245.50;5254950;28;20031;-82
2023/07/11 14:50:03;;;;;;;4.93;2.78;;;;;;;-145.79;34.98;75232.78;5258770;28;20171;-82
2023/07/11 14:52:35;;;;;;;6.63;2.80;;;;;;;-145.79;35.18;75215.84;5270634;28;20044;-82
2023/07/11 14:55:12;;;;;;;3.35;2.42;;;;;;;-145.79;34.56;75205.25;5270329;28;20099;-82
2023/07/11 14:57:47;;;;;;;3.67;3.08;;;;;;;-145.79;34.64;75190.41;5268636;28;20068;-82
2023/07/11 15:00:21;;;;;;;4.43;2.80;;;;;;;-145.79;34.32;75177.69;5272860;28;20028;-78
2023/07/11 15:02:53;;;;;;;2.93;2.63;;;;;;;-145.79;35.04;75171.34;5278680;28;20506;-78
2023/07/11 15:05:27;;;;;;;5.10;2.58;;;;;;;-145.79;35.07;75177.69;5266240;28;20052;-78
2023/07/11 15:08:05;;;;;;;4.82;3.22;;;;;;;-145.79;34.97;75198.88;5270450;28;20322;-77
2023/07/11 15:10:36;;;;;;;5.88;3.42;;;;;;;-145.79;35.28;75201.00;5266271;28;20029;-80
2023/07/11 15:13:10;;;;;;;4.55;2.97;;;;;;;-145.79;35.46;75205.25;5277725;28;20031;-81
2023/07/11 15:15:42;;;;;;;6.60;2.70;;;;;;;-145.79;35.88;75245.50;5279009;28;20107;-80
2023/07/11 15:18:17;;;;;;;5.57;2.95;;;;;;;-145.79;36.05;75232.78;5274235;28;20043;-76
2023/07/11 15:20:50;;;;;;;7.80;3.92;;;;;;;-145.79;36.01;75215.84;5267810;28;20028;-76
2023/07/11 15:23:21;;;;;;;4.22;2.90;;;;;;;-145.79;36.37;75256.09;5259835;28;20088;-76
2023/07/11 15:25:52;;;;;;;8.80;2.70;;;;;;;-145.79;36.19;75243.38;5279182;28;20036;-79
2023/07/11 15:28:26;;;;;;;3.75;2.45;;;;;;;-145.79;36.15;75253.97;5276909;28;20036;-77
2023/07/11 15:31:01;;;;;;;5.13;2.95;;;;;;;-145.79;36.30;75241.25;5275263;28;20029;-77
2023/07/11 15:33:42;;;;;;;8.55;7.63;;;;;;;-145.79;36.30;75215.84;5274012;28;20387;-80
2023/07/11 15:36:14;;;;;;;5.00;2.63;;;;;;;-145.79;35.52;75211.59;5252055;28;20033;-75
2023/07/11 15:38:45;;;;;;;4.35;2.75;;;;;;;-145.79;35.63;75203.13;5272406;28;20541;-79
2023/07/11 15:41:18;;;;;;;3.90;2.60;;;;;;;-145.79;35.62;75220.06;5268885;28;20075;-79
2023/07/11 15:43:49;;;;;;;4.97;3.10;;;;;;;-145.79;35.93;75211.59;5268663;28;20052;-81
2023/07/11 15:46:20;;;;;;;7.28;2.63;;;;;;;-145.79;35.80;75203.13;5259519;28;20061;-82
2023/07/11 15:48:56;;;;;;;4.03;2.60;;;;;;;-145.79;35.69;75188.28;5265871;28;20519;-83
2023/07/11 15:51:28;;;;;;;3.92;3.53;;;;;;;-145.79;35.68;75169.22;5284156;28;20044;-83
2023/07/11 15:53:59;;;;;;;5.32;2.65;;;;;;;-145.79;35.98;75165.00;5282507;28;20052;-83
2023/07/11 15:56:31;;;;;;;5.55;2.35;;;;;;;-145.79;36.28;75181.94;5279119;28;20386;-84
2023/07/11 15:59:12;;;;;;;8.27;5.15;;;;;;;-145.79;36.37;75207.34;5281609;28;20439;-81
2023/07/11 16:01:44;;;;;;;4.60;2.83;;;;;;;-145.79;36.05;75190.41;5279267;28;20025;-78
2023/07/11 16:04:17;;;;;;;5.20;2.22;;;;;;;-145.79;35.90;75203.13;5278714;28;20067;-78
2023/07/11 16:06:50;;;;;;;3.95;2.33;;;;;;;-145.79;36.36;75190.41;5279340;28;20428;-78
2023/07/11 16:09:27;;;;;;;5.75;2.33;;;;;;;-145.79;36.20;75190.41;5277382;28;20029;-77
2023/07/11 16:11:58;;;;;;;5.82;3.03;;;;;;;-145.79;36.30;75184.06;5279523;28;20054;-80
2023/07/11 16:14:29;;;;;;;7.10;3.15;;;;;;;-145.79;36.29;75201.00;5270584;28;20021;-80
2023/07/11 16:17:01;;;;;;;4.53;2.67;;;;;;;-145.79;36.41;75213.72;5272814;28;20468;-79
2023/07/11 16:19:32;;;;;;;6.13;2.83;;;;;;;-145.79;36.85;75241.25;5279238;28;20024;-80
2023/07/11 16:22:04;;;;;;;9.30;8.32;;;;;;;-145.79;36.81;75249.72;5276387;28;20060;-79
2023/07/11 16:24:35;;;;;;;4.28;2.58;;;;;;;-145.79;36.94;75241.25;5277776;28;20032;-79
2023/07/11 16:27:15;;;;;;;3.53;2.42;;;;;;;-145.79;36.97;75245.50;5271157;28;20052;-78
2023/07/11 16:29:47;;;;;;;6.60;5.53;;;;;;;-145.79;36.65;75226.44;5272159;28;20024;-78
2023/07/11 16:32:18;;;;;;;5.00;2.60;;;;;;;-145.79;36.51;75245.50;5269695;28;20373;-80
2023/07/11 16:34:50;;;;;;;4.07;2.65;;;;;;;-145.79;36.71;75232.78;5272211;28;20031;-79
2023/07/11 16:37:26;;;;;;;4.00;2.13;;;;;;;-145.79;36.81;75232.78;5266325;28;20032;-79
2023/07/11 16:39:58;;;;;;;5.55;2.60;;;;;;;-145.79;37.13;75215.84;5275329;28;20024;-78
2023/07/11 16:42:29;;;;;;;4.55;2.28;;;;;;;-145.79;36.98;75207.34;5261142;28;20034;-78
2023/07/11 16:45:01;;;;;;;4.03;2.33;;;;;;;-145.79;36.75;75220.06;5272665;28;20027;-79
2023/07/11 16:47:33;;;;;;;5.20;3.00;;;;;;;-145.79;37.07;75228.53;5269886;28;20037;-78
2023/07/11 16:50:12;;;;;;;6.15;2.58;;;;;;;-145.79;37.32;75228.53;5280626;28;20047;-79
2023/07/11 16:52:44;;;;;;;5.00;2.78;;;;;;;-145.79;37.44;75222.19;5262336;28;20033;-79
